Time,TemperatureF,DewpointF,PressureIn,WindDirection,WindDirectionDegrees,WindSpeedMPH,WindSpeedGustMPH,Humidity,HourlyPrecipIn,Conditions,Clouds,dailyrainin,SolarRadiationWatts/m^2,SoftwareType,DateUTC
2013-06-21 00:02:00,74.5,72.7,30.06,ESE,118,0.0,0.0,94,0.00,,,0.00,0.0,meteohub,2013-06-21 05:02:00,
2013-06-21 00:07:00,74.5,72.7,30.07,ESE,118,0.0,0.0,94,0.00,,,0.00,0.0,meteohub,2013-06-21 05:07:00,
2013-06-21 00:12:00,74.5,72.7,30.07,ESE,118,0.0,0.0,94,0.00,,,0.00,0.0,meteohub,2013-06-21 05:12:00,
2013-06-21 00:17:00,74.5,73.0,30.07,ESE,118,0.0,0.0,95,0.00,,,0.00,0.0,meteohub,2013-06-21 05:17:00,
2013-06-21 00:23:00,74.3,72.9,30.07,ESE,118,0.0,0.0,95,0.00,,,0.00,0.0,meteohub,2013-06-21 05:23:00,
2013-06-21 00:27:00,74.3,72.9,30.06,ESE,118,0.0,0.0,95,0.00,,,0.00,0.0,meteohub,2013-06-21 05:27:00,
2013-06-21 00:33:00,74.3,72.9,30.06,ESE,118,0.0,0.0,95,0.00,,,0.00,0.0,meteohub,2013-06-21 05:33:00,
2013-06-21 00:38:00,74.3,72.9,30.07,ESE,118,0.0,0.0,95,0.00,,,0.00,0.0,meteohub,2013-06-21 05:38:00,
2013-06-21 00:43:00,74.3,72.9,30.06,ESE,118,0.0,0.0,95,0.00,,,0.00,0.0,meteohub,2013-06-21 05:43:00,
2013-06-21 00:48:00,74.3,72.9,30.06,ESE,118,0.0,0.0,95,0.00,,,0.00,0.0,meteohub,2013-06-21 05:48:00,
2013-06-21 00:53:00,74.3,72.9,30.06,ESE,118,0.0,0.0,95,0.00,,,0.00,0.0,meteohub,2013-06-21 05:53:00,
2013-06-21 00:58:00,74.5,73.0,30.06,ESE,118,0.0,0.0,95,0.00,,,0.00,0.0,meteohub,2013-06-21 05:58:00,
2013-06-21 01:03:00,74.5,73.0,30.06,ESE,118,0.0,0.0,95,0.00,,,0.00,0.0,meteohub,2013-06-21 06:03:00,
2013-06-21 01:08:00,74.5,73.0,30.06,ESE,118,0.0,0.0,95,0.00,,,0.00,0.0,meteohub,2013-06-21 06:08:00,
2013-06-21 01:13:00,74.3,73.0,30.06,ESE,118,0.0,0.0,96,0.00,,,0.00,0.0,meteohub,2013-06-21 06:13:00,
2013-06-21 01:18:00,74.3,73.0,30.06,ESE,118,0.0,0.0,96,0.00,,,0.00,0.0,meteohub,2013-06-21 06:18:00,
2013-06-21 01:23:00,74.3,73.0,30.06,ESE,118,0.0,0.0,96,0.00,,,0.00,0.0,meteohub,2013-06-21 06:23:00,
2013-06-21 01:28:00,74.1,72.7,30.06,ESE,118,0.0,0.0,95,0.00,,,0.00,0.0,meteohub,2013-06-21 06:28:00,
2013-06-21 01:33:00,74.1,72.9,30.06,ESE,118,0.0,0.0,96,0.00,,,0.00,0.0,meteohub,2013-06-21 06:33:00,
2013-06-21 01:38:00,74.1,72.9,30.06,ESE,118,0.0,0.0,96,0.00,,,0.00,0.0,meteohub,2013-06-21 06:38:00,
2013-06-21 01:43:00,74.1,72.9,30.06,ESE,118,0.0,0.0,96,0.00,,,0.00,0.0,meteohub,2013-06-21 06:43:00,
2013-06-21 01:48:00,73.9,72.7,30.06,ESE,118,0.0,0.0,96,0.00,,,0.00,0.0,meteohub,2013-06-21 06:48:00,
2013-06-21 01:53:00,73.9,72.7,30.06,ESE,118,0.0,0.0,96,0.00,,,0.00,0.0,meteohub,2013-06-21 06:53:00,
2013-06-21 01:59:00,73.9,72.7,30.06,ESE,118,0.0,0.0,96,0.00,,,0.00,0.0,meteohub,2013-06-21 06:59:00,
2013-06-21 02:04:00,73.9,72.7,30.06,ESE,118,0.0,0.0,96,0.00,,,0.00,0.0,meteohub,2013-06-21 07:04:00,
2013-06-21 02:09:00,73.8,72.5,30.06,ESE,118,0.0,0.0,96,0.00,,,0.00,0.0,meteohub,2013-06-21 07:09:00,
2013-06-21 02:14:00,73.9,72.7,30.06,ESE,118,0.0,0.0,96,0.00,,,0.00,0.0,meteohub,2013-06-21 07:14:00,
2013-06-21 02:20:00,73.8,72.5,30.06,ESE,118,0.0,0.0,96,0.00,,,0.00,0.0,meteohub,2013-06-21 07:20:00,
2013-06-21 02:25:00,73.8,72.5,30.06,ESE,118,0.0,0.0,96,0.00,,,0.00,0.0,meteohub,2013-06-21 07:25:00,
2013-06-21 02:30:00,73.8,72.5,30.06,ESE,118,0.0,0.0,96,0.00,,,0.00,0.0,meteohub,2013-06-21 07:30:00,
2013-06-21 02:35:00,73.8,72.9,30.05,ESE,118,0.0,0.0,97,0.00,,,0.00,0.0,meteohub,2013-06-21 07:35:00,
2013-06-21 02:40:00,73.8,72.9,30.06,ESE,118,0.0,0.0,97,0.00,,,0.00,0.0,meteohub,2013-06-21 07:40:00,
2013-06-21 02:45:00,73.8,72.9,30.05,ESE,118,0.0,0.0,97,0.00,,,0.00,0.0,meteohub,2013-06-21 07:45:00,
2013-06-21 02:50:00,73.8,72.9,30.05,ESE,118,0.0,0.0,97,0.00,,,0.00,0.0,meteohub,2013-06-21 07:50:00,
2013-06-21 02:55:00,73.8,72.9,30.05,ESE,118,0.0,0.0,97,0.00,,,0.00,0.0,meteohub,2013-06-21 07:55:00,
2013-06-21 03:00:00,73.8,72.9,30.05,ESE,118,0.0,0.0,97,0.00,,,0.00,0.0,meteohub,2013-06-21 08:00:00,
2013-06-21 03:05:00,73.8,72.9,30.05,ESE,118,0.0,0.0,97,0.00,,,0.00,0.0,meteohub,2013-06-21 08:05:00,
2013-06-21 03:10:00,73.8,72.9,30.05,ESE,118,0.0,0.0,97,0.00,,,0.00,0.0,meteohub,2013-06-21 08:10:00,
2013-06-21 03:15:00,73.8,72.9,30.05,ESE,118,0.0,0.0,97,0.00,,,0.00,0.0,meteohub,2013-06-21 08:15:00,
2013-06-21 03:20:00,73.8,72.9,30.05,ESE,118,0.0,0.0,97,0.00,,,0.00,0.0,meteohub,2013-06-21 08:20:00,
2013-06-21 03:26:00,73.9,73.0,30.05,ESE,118,0.0,0.0,97,0.00,,,0.00,0.0,meteohub,2013-06-21 08:26:00,
2013-06-21 03:31:00,73.8,72.9,30.05,ESE,118,0.0,0.0,97,0.00,,,0.00,0.0,meteohub,2013-06-21 08:31:00,
2013-06-21 03:36:00,73.8,72.9,30.05,ESE,118,0.0,0.0,97,0.00,,,0.00,0.0,meteohub,2013-06-21 08:36:00,
2013-06-21 03:41:00,73.8,72.9,30.05,ESE,118,0.0,0.0,97,0.00,,,0.00,0.0,meteohub,2013-06-21 08:41:00,
2013-06-21 03:46:00,73.8,72.9,30.05,ESE,118,0.0,0.0,97,0.00,,,0.00,0.0,meteohub,2013-06-21 08:46:00,
2013-06-21 03:51:00,73.8,72.9,30.05,ESE,118,0.0,0.0,97,0.00,,,0.00,0.0,meteohub,2013-06-21 08:51:00,
2013-06-21 03:56:00,73.6,72.7,30.05,ESE,118,0.0,0.0,97,0.00,,,0.00,0.0,meteohub,2013-06-21 08:56:00,
2013-06-21 04:01:00,73.6,72.7,30.05,ESE,118,0.0,0.0,97,0.00,,,0.00,0.0,meteohub,2013-06-21 09:01:00,
2013-06-21 04:06:00,73.6,72.7,30.05,ESE,118,0.0,0.0,97,0.00,,,0.00,0.0,meteohub,2013-06-21 09:06:00,
2013-06-21 04:11:00,73.6,72.7,30.05,ESE,118,0.0,0.0,97,0.00,,,0.00,0.0,meteohub,2013-06-21 09:11:00,
2013-06-21 04:16:00,73.6,72.7,30.06,ESE,118,0.0,0.0,97,0.00,,,0.00,0.0,meteohub,2013-06-21 09:16:00,
2013-06-21 04:21:00,73.6,72.7,30.06,ESE,118,0.0,0.0,97,0.00,,,0.00,0.0,meteohub,2013-06-21 09:21:00,
2013-06-21 04:26:00,73.6,72.7,30.06,ESE,118,0.0,0.0,97,0.00,,,0.00,0.0,meteohub,2013-06-21 09:26:00,
2013-06-21 04:31:00,73.6,72.7,30.06,ESE,118,0.0,0.0,97,0.00,,,0.00,0.0,meteohub,2013-06-21 09:31:00,
2013-06-21 04:36:00,73.6,72.7,30.06,ESE,118,0.0,0.0,97,0.00,,,0.00,0.0,meteohub,2013-06-21 09:36:00,
2013-06-21 04:41:00,73.4,72.5,30.06,ESE,118,0.0,0.0,97,0.00,,,0.00,0.0,meteohub,2013-06-21 09:41:00,
2013-06-21 04:46:00,73.4,72.5,30.06,ESE,118,0.0,0.0,97,0.00,,,0.00,0.0,meteohub,2013-06-21 09:46:00,
2013-06-21 04:51:00,73.2,72.3,30.06,ESE,118,0.0,0.0,97,0.00,,,0.00,0.0,meteohub,2013-06-21 09:51:00,
2013-06-21 04:56:00,73.2,72.3,30.06,ESE,118,0.0,0.0,97,0.00,,,0.00,0.0,meteohub,2013-06-21 09:56:00,
2013-06-21 05:01:00,73.4,72.5,30.06,ESE,118,0.0,0.0,97,0.00,,,0.00,0.0,meteohub,2013-06-21 10:01:00,
2013-06-21 05:06:00,73.6,72.7,30.06,ESE,118,0.0,0.0,97,0.00,,,0.00,0.0,meteohub,2013-06-21 10:06:00,
2013-06-21 05:11:00,73.6,72.7,30.06,ESE,118,0.0,0.0,97,0.00,,,0.00,0.0,meteohub,2013-06-21 10:11:00,
2013-06-21 05:16:00,73.6,72.7,30.06,ESE,118,0.0,0.0,97,0.00,,,0.00,0.0,meteohub,2013-06-21 10:16:00,
2013-06-21 05:21:00,73.6,72.7,30.06,ESE,118,0.0,0.0,97,0.00,,,0.00,0.0,meteohub,2013-06-21 10:21:00,
2013-06-21 05:26:00,73.6,72.7,30.06,ESE,118,0.0,0.0,97,0.00,,,0.00,0.0,meteohub,2013-06-21 10:26:00,
2013-06-21 05:31:00,73.6,72.7,30.06,ESE,118,0.0,0.0,97,0.00,,,0.00,0.0,meteohub,2013-06-21 10:31:00,
2013-06-21 05:36:00,73.6,72.7,30.06,ESE,118,0.0,0.0,97,0.00,,,0.00,0.0,meteohub,2013-06-21 10:36:00,
2013-06-21 05:41:00,73.6,72.7,30.06,ESE,118,0.0,0.0,97,0.00,,,0.00,0.0,meteohub,2013-06-21 10:41:00,
2013-06-21 05:46:00,73.6,72.7,30.06,ESE,118,0.0,0.0,97,0.00,,,0.00,0.0,meteohub,2013-06-21 10:46:00,
2013-06-21 05:51:00,73.4,72.5,30.07,ESE,118,0.0,0.0,97,0.00,,,0.00,0.0,meteohub,2013-06-21 10:51:00,
2013-06-21 05:56:00,73.4,72.5,30.07,ESE,118,0.0,0.0,97,0.00,,,0.00,0.0,meteohub,2013-06-21 10:56:00,
2013-06-21 06:01:00,73.2,72.3,30.07,ESE,118,0.0,0.0,97,0.00,,,0.00,0.0,meteohub,2013-06-21 11:01:00,
2013-06-21 06:06:00,73.2,72.3,30.07,ESE,118,0.0,0.0,97,0.00,,,0.00,0.0,meteohub,2013-06-21 11:06:00,
2013-06-21 06:11:00,73.2,72.3,30.07,ESE,118,0.0,0.0,97,0.00,,,0.00,0.0,meteohub,2013-06-21 11:11:00,
2013-06-21 06:16:00,73.2,72.3,30.07,ESE,118,0.0,0.0,97,0.00,,,0.00,5.0,meteohub,2013-06-21 11:16:00,
2013-06-21 06:21:00,73.2,72.3,30.07,ESE,118,0.0,0.0,97,0.00,,,0.00,7.0,meteohub,2013-06-21 11:21:00,
2013-06-21 06:26:00,73.2,72.3,30.07,ESE,118,0.0,0.0,97,0.00,,,0.00,11.0,meteohub,2013-06-21 11:26:00,
2013-06-21 06:31:00,73.4,72.5,30.07,ESE,118,0.0,0.0,97,0.00,,,0.00,12.0,meteohub,2013-06-21 11:31:00,
2013-06-21 06:36:00,73.4,72.5,30.07,ESE,118,0.0,0.0,97,0.00,,,0.00,16.0,meteohub,2013-06-21 11:36:00,
2013-06-21 06:41:00,73.6,72.7,30.07,ESE,119,0.0,0.0,97,0.00,,,0.01,23.0,meteohub,2013-06-21 11:41:00,
2013-06-21 06:47:00,73.8,73.2,30.07,West,281,0.0,0.0,98,0.01,,,0.01,28.0,meteohub,2013-06-21 11:47:00,
2013-06-21 06:52:00,73.9,73.4,30.08,West,281,0.0,0.0,98,0.01,,,0.01,32.0,meteohub,2013-06-21 11:52:00,
2013-06-21 06:57:00,73.9,73.4,30.08,West,280,0.0,0.0,98,0.01,,,0.01,35.0,meteohub,2013-06-21 11:57:00,
2013-06-21 07:02:00,74.1,73.6,30.07,West,280,0.0,0.0,98,0.01,,,0.01,37.0,meteohub,2013-06-21 12:02:00,
2013-06-21 07:07:00,74.3,73.8,30.08,NNW,337,0.0,0.0,98,0.01,,,0.01,35.0,meteohub,2013-06-21 12:07:00,
2013-06-21 07:12:00,74.5,73.9,30.08,NNW,336,0.0,0.0,98,0.01,,,0.01,47.0,meteohub,2013-06-21 12:12:00,
2013-06-21 07:17:00,74.7,74.1,30.08,NNW,336,0.0,0.0,98,0.01,,,0.01,51.0,meteohub,2013-06-21 12:17:00,
2013-06-21 07:22:00,74.8,74.3,30.08,NNW,336,0.0,0.0,98,0.01,,,0.01,54.0,meteohub,2013-06-21 12:22:00,
2013-06-21 07:27:00,74.8,74.3,30.09,NNW,336,0.0,0.0,98,0.01,,,0.01,58.0,meteohub,2013-06-21 12:27:00,
2013-06-21 07:32:00,75.4,74.8,30.08,NNW,336,0.0,0.0,98,0.01,,,0.01,62.0,meteohub,2013-06-21 12:32:00,
2013-06-21 07:37:00,75.4,74.8,30.09,NNW,336,0.0,0.0,98,0.01,,,0.01,67.0,meteohub,2013-06-21 12:37:00,
2013-06-21 07:42:00,75.7,75.2,30.09,ESE,113,0.0,0.0,98,0.01,,,0.01,83.0,meteohub,2013-06-21 12:42:00,
2013-06-21 07:47:00,75.9,75.4,30.09,ESE,113,0.0,0.0,98,0.00,,,0.01,95.0,meteohub,2013-06-21 12:47:00,
2013-06-21 07:52:00,76.3,75.4,30.09,ESE,113,0.0,0.0,97,0.00,,,0.01,111.0,meteohub,2013-06-21 12:52:00,
2013-06-21 07:57:00,76.8,75.9,30.09,South,185,0.0,0.0,97,0.00,,,0.01,127.0,meteohub,2013-06-21 12:57:00,
2013-06-21 08:02:00,77.4,76.1,30.09,South,186,0.0,0.0,96,0.00,,,0.01,144.0,meteohub,2013-06-21 13:02:00,
2013-06-21 08:07:00,77.9,76.3,30.09,South,186,0.0,0.0,95,0.00,,,0.01,155.0,meteohub,2013-06-21 13:07:00,
2013-06-21 08:12:00,78.4,76.6,30.09,South,186,0.0,0.0,94,0.00,,,0.01,165.0,meteohub,2013-06-21 13:12:00,
2013-06-21 08:17:00,79.0,76.5,30.09,South,186,0.0,0.0,92,0.00,,,0.01,178.0,meteohub,2013-06-21 13:17:00,
2013-06-21 08:22:00,79.3,76.5,30.09,South,186,0.0,0.0,91,0.00,,,0.01,188.0,meteohub,2013-06-21 13:22:00,
2013-06-21 08:27:00,79.9,76.6,30.09,South,186,0.0,0.0,90,0.00,,,0.01,200.0,meteohub,2013-06-21 13:27:00,
2013-06-21 08:32:00,80.4,77.2,30.09,South,185,0.0,0.0,90,0.00,,,0.01,209.0,meteohub,2013-06-21 13:32:00,
2013-06-21 08:37:00,80.8,76.8,30.09,South,186,0.0,0.0,88,0.00,,,0.01,220.0,meteohub,2013-06-21 13:37:00,
2013-06-21 08:42:00,81.0,76.6,30.09,South,185,0.0,0.0,87,0.00,,,0.01,230.0,meteohub,2013-06-21 13:42:00,
2013-06-21 08:47:00,81.3,77.0,30.09,SE,138,0.0,0.0,87,0.00,,,0.01,237.0,meteohub,2013-06-21 13:47:00,
2013-06-21 08:52:00,81.7,77.0,30.09,WSW,254,0.0,0.0,86,0.00,,,0.01,246.0,meteohub,2013-06-21 13:52:00,
2013-06-21 08:57:00,82.0,77.7,30.09,WSW,246,0.0,0.0,87,0.00,,,0.01,255.0,meteohub,2013-06-21 13:57:00,
2013-06-21 09:02:00,82.2,77.2,30.10,WSW,237,0.0,0.0,85,0.00,,,0.01,265.0,meteohub,2013-06-21 14:02:00,
2013-06-21 09:07:00,82.2,77.2,30.10,WSW,238,0.0,3.0,85,0.00,,,0.01,274.0,meteohub,2013-06-21 14:07:00,
2013-06-21 09:12:00,82.4,77.4,30.10,WSW,238,0.0,3.0,85,0.00,,,0.01,292.0,meteohub,2013-06-21 14:12:00,
2013-06-21 09:17:00,82.8,77.4,30.10,SSW,212,0.0,3.0,84,0.00,,,0.01,304.0,meteohub,2013-06-21 14:17:00,
2013-06-21 09:22:00,82.9,77.9,30.10,SSW,211,0.0,3.0,85,0.00,,,0.01,316.0,meteohub,2013-06-21 14:22:00,
2013-06-21 09:28:00,83.1,78.1,30.10,SSW,208,0.0,4.0,85,0.00,,,0.01,329.0,meteohub,2013-06-21 14:28:00,
2013-06-21 09:33:00,83.5,77.7,30.10,SSW,202,0.0,4.0,83,0.00,,,0.01,339.0,meteohub,2013-06-21 14:33:00,
2013-06-21 09:38:00,83.7,77.9,30.09,SSW,203,0.0,5.0,83,0.00,,,0.01,350.0,meteohub,2013-06-21 14:38:00,
2013-06-21 09:43:00,83.8,78.1,30.09,SSW,208,0.0,5.0,83,0.00,,,0.01,362.0,meteohub,2013-06-21 14:43:00,
2013-06-21 09:48:00,83.8,78.1,30.09,SSW,208,1.0,6.0,83,0.00,,,0.01,373.0,meteohub,2013-06-21 14:48:00,
2013-06-21 09:53:00,84.0,78.3,30.09,SSW,209,0.0,6.0,83,0.00,,,0.01,385.0,meteohub,2013-06-21 14:53:00,
2013-06-21 09:58:00,84.6,78.4,30.09,SSW,208,0.0,6.0,82,0.00,,,0.01,366.0,meteohub,2013-06-21 14:58:00,
2013-06-21 10:03:00,84.9,78.8,30.09,ENE,68,0.0,6.0,82,0.00,,,0.01,401.0,meteohub,2013-06-21 15:03:00,
2013-06-21 10:11:00,84.7,78.6,30.09,ENE,75,0.0,6.0,82,0.00,,,0.01,413.0,meteohub,2013-06-21 15:11:00,
2013-06-21 10:16:00,85.3,78.8,30.10,SSW,203,1.0,6.0,81,0.00,,,0.01,461.0,meteohub,2013-06-21 15:16:00,
2013-06-21 10:21:00,85.6,77.9,30.10,NE,42,0.0,6.0,78,0.00,,,0.01,475.0,meteohub,2013-06-21 15:21:00,
2013-06-21 10:26:00,85.5,77.0,30.10,WNW,283,0.0,6.0,76,0.00,,,0.01,457.0,meteohub,2013-06-21 15:26:00,
2013-06-21 10:31:00,85.5,76.6,30.10,SW,231,0.0,6.0,75,0.00,,,0.01,494.0,meteohub,2013-06-21 15:31:00,
2013-06-21 10:37:00,85.8,74.8,30.10,WSW,253,0.0,6.0,70,0.00,,,0.01,575.0,meteohub,2013-06-21 15:37:00,
2013-06-21 10:42:00,86.4,76.6,30.11,WSW,252,0.0,6.0,73,0.00,,,0.01,613.0,meteohub,2013-06-21 15:42:00,
2013-06-21 10:47:00,86.7,75.7,30.11,WSW,252,0.0,2.0,70,0.00,,,0.01,643.0,meteohub,2013-06-21 15:47:00,
2013-06-21 10:52:00,87.1,76.1,30.11,SSE,159,0.0,2.0,70,0.00,,,0.01,696.0,meteohub,2013-06-21 15:52:00,
2013-06-21 10:57:00,87.6,76.6,30.11,SSE,159,0.0,1.0,70,0.00,,,0.01,733.0,meteohub,2013-06-21 15:57:00,
2013-06-21 11:02:00,87.6,77.0,30.11,SE,129,0.0,1.0,71,0.00,,,0.01,766.0,meteohub,2013-06-21 16:02:00,
2013-06-21 11:07:00,87.4,76.8,30.11,SSW,199,0.0,1.0,71,0.00,,,0.01,874.0,meteohub,2013-06-21 16:07:00,
2013-06-21 11:12:00,86.4,76.6,30.11,West,269,0.0,1.0,73,0.00,,,0.01,246.0,meteohub,2013-06-21 16:12:00,
2013-06-21 11:17:00,86.2,78.1,30.11,NNW,335,0.0,4.0,77,0.00,,,0.01,918.0,meteohub,2013-06-21 16:17:00,
2013-06-21 11:22:00,86.2,77.4,30.11,SSE,154,0.0,4.0,75,0.00,,,0.01,239.0,meteohub,2013-06-21 16:22:00,
2013-06-21 11:27:00,85.6,75.6,30.11,NE,56,0.0,1.0,72,0.00,,,0.01,213.0,meteohub,2013-06-21 16:27:00,
2013-06-21 11:32:00,85.3,75.2,30.11,ENE,77,0.0,1.0,72,0.00,,,0.01,204.0,meteohub,2013-06-21 16:32:00,
2013-06-21 11:37:00,86.4,76.6,30.11,SSE,152,0.0,1.0,73,0.00,,,0.01,921.0,meteohub,2013-06-21 16:37:00,
2013-06-21 11:42:00,85.6,76.8,30.11,NNW,337,0.0,1.0,75,0.00,,,0.01,118.0,meteohub,2013-06-21 16:42:00,
2013-06-21 11:47:00,84.7,76.3,30.11,WSW,241,0.0,1.0,76,0.00,,,0.01,176.0,meteohub,2013-06-21 16:47:00,
2013-06-21 11:52:00,85.1,77.0,30.11,NE,38,0.0,1.0,77,0.00,,,0.01,1030.0,meteohub,2013-06-21 16:52:00,
2013-06-21 11:57:00,86.0,75.6,30.11,WSW,250,0.0,1.0,71,0.00,,,0.01,295.0,meteohub,2013-06-21 16:57:00,
2013-06-21 12:02:00,86.7,75.4,30.11,SSE,152,0.0,1.0,69,0.00,,,0.01,1058.0,meteohub,2013-06-21 17:02:00,
2013-06-21 12:08:00,87.1,77.0,30.11,South,175,0.0,1.0,72,0.00,,,0.01,255.0,meteohub,2013-06-21 17:08:00,
2013-06-21 12:14:00,86.5,77.2,30.11,SW,217,0.0,1.0,74,0.00,,,0.01,1132.0,meteohub,2013-06-21 17:14:00,
2013-06-21 12:19:00,87.6,75.7,30.11,NNE,23,0.0,1.0,68,0.00,,,0.01,1188.0,meteohub,2013-06-21 17:19:00,
2013-06-21 12:24:00,87.6,76.6,30.11,ENE,60,0.0,1.0,70,0.00,,,0.01,492.0,meteohub,2013-06-21 17:24:00,
2013-06-21 12:29:00,88.2,76.6,30.11,SSE,164,0.0,1.0,69,0.00,,,0.01,1190.0,meteohub,2013-06-21 17:29:00,
2013-06-21 12:35:00,88.3,76.8,30.11,SSE,165,0.0,1.0,69,0.00,,,0.01,1169.0,meteohub,2013-06-21 17:35:00,
2013-06-21 12:41:00,89.1,77.2,30.11,SE,124,0.0,1.0,68,0.00,,,0.01,1053.0,meteohub,2013-06-21 17:41:00,
2013-06-21 12:46:00,89.2,76.8,30.10,SW,233,0.0,1.0,67,0.00,,,0.01,1056.0,meteohub,2013-06-21 17:46:00,
2013-06-21 12:47:00,89.1,76.6,30.10,SW,233,0.0,1.0,67,0.00,,,0.01,1083.0,meteohub,2013-06-21 17:47:00,
2013-06-21 12:52:00,88.3,75.9,30.10,ENE,77,0.0,3.0,67,0.00,,,0.01,174.0,meteohub,2013-06-21 17:52:00,
2013-06-21 12:57:00,87.1,76.5,30.10,NNE,26,0.0,3.0,71,0.00,,,0.01,171.0,meteohub,2013-06-21 17:57:00,
2013-06-21 13:03:00,86.4,75.4,30.10,SW,217,0.0,1.0,70,0.00,,,0.01,176.0,meteohub,2013-06-21 18:03:00,
2013-06-21 13:10:00,86.0,75.9,30.10,ENE,67,0.0,1.0,72,0.00,,,0.01,213.0,meteohub,2013-06-21 18:10:00,
2013-06-21 13:15:00,88.9,77.0,30.10,ENE,67,0.0,1.0,68,0.00,,,0.01,981.0,meteohub,2013-06-21 18:15:00,
2013-06-21 13:20:00,89.6,78.4,30.09,SE,141,0.0,1.0,70,0.00,,,0.01,976.0,meteohub,2013-06-21 18:20:00,
2013-06-21 13:24:00,89.8,76.5,30.10,SE,142,0.0,1.0,65,0.00,,,0.01,1004.0,meteohub,2013-06-21 18:24:00,
2013-06-21 13:29:00,90.1,76.8,30.09,SW,226,0.0,1.0,65,0.00,,,0.01,988.0,meteohub,2013-06-21 18:29:00,
2013-06-21 13:34:00,89.4,76.1,30.09,SW,216,0.0,1.0,65,0.00,,,0.01,1002.0,meteohub,2013-06-21 18:34:00,
2013-06-21 13:39:00,89.4,77.0,30.09,SW,227,1.0,1.0,67,0.00,,,0.01,988.0,meteohub,2013-06-21 18:39:00,
2013-06-21 13:45:00,90.0,77.5,30.09,SSW,192,0.0,1.0,67,0.00,,,0.01,990.0,meteohub,2013-06-21 18:45:00,
2013-06-21 13:46:00,90.0,77.0,30.09,SSW,192,0.0,1.0,66,0.00,,,0.01,744.0,meteohub,2013-06-21 18:46:00,
2013-06-21 13:47:00,90.0,76.6,30.09,SSW,192,0.0,1.0,65,0.00,,,0.01,744.0,meteohub,2013-06-21 18:47:00,
2013-06-21 13:52:00,88.5,77.5,30.09,South,169,0.0,1.0,70,0.00,,,0.01,169.0,meteohub,2013-06-21 18:52:00,
2013-06-21 13:57:00,87.4,76.8,30.08,SE,146,0.0,1.0,71,0.00,,,0.01,158.0,meteohub,2013-06-21 18:57:00,
2013-06-21 14:02:00,87.3,75.4,30.08,East,86,0.0,1.0,68,0.00,,,0.01,146.0,meteohub,2013-06-21 19:02:00,
2013-06-21 14:07:00,87.6,75.7,30.09,ENE,57,0.0,1.0,68,0.00,,,0.01,158.0,meteohub,2013-06-21 19:07:00,
2013-06-21 14:14:00,87.4,75.2,30.08,ESE,121,0.0,1.0,67,0.00,,,0.01,202.0,meteohub,2013-06-21 19:14:00,
2013-06-21 14:19:00,86.7,75.7,30.08,NNE,32,0.0,1.0,70,0.00,,,0.01,230.0,meteohub,2013-06-21 19:19:00,
2013-06-21 14:21:00,87.1,75.2,30.07,NNE,33,0.0,1.0,68,0.00,,,0.01,244.0,meteohub,2013-06-21 19:21:00,
2013-06-21 14:26:00,88.5,77.5,30.07,South,183,0.0,1.0,70,0.00,,,0.01,831.0,meteohub,2013-06-21 19:26:00,
2013-06-21 14:31:00,88.3,75.6,30.07,West,277,0.0,1.0,66,0.00,,,0.01,139.0,meteohub,2013-06-21 19:31:00,
2013-06-21 14:36:00,88.0,77.0,30.07,West,278,0.0,1.0,70,0.00,,,0.01,153.0,meteohub,2013-06-21 19:36:00,
2013-06-21 14:41:00,87.1,78.3,30.07,NNW,338,0.0,1.0,75,0.00,,,0.01,297.0,meteohub,2013-06-21 19:41:00,
2013-06-21 14:42:00,87.1,77.7,30.07,NNW,340,0.0,1.0,74,0.00,,,0.01,775.0,meteohub,2013-06-21 19:42:00,
2013-06-21 14:47:00,88.3,77.7,30.06,WNW,301,0.0,1.0,71,0.00,,,0.01,171.0,meteohub,2013-06-21 19:47:00,
2013-06-21 14:52:00,88.5,75.7,30.06,WNW,301,0.0,1.0,66,0.00,,,0.01,795.0,meteohub,2013-06-21 19:52:00,
2013-06-21 14:57:00,89.4,78.3,30.06,WNW,302,0.0,1.0,70,0.00,,,0.01,791.0,meteohub,2013-06-21 19:57:00,
2013-06-21 15:02:00,90.0,75.7,30.06,WNW,302,0.0,1.0,63,0.00,,,0.01,814.0,meteohub,2013-06-21 20:02:00,
2013-06-21 15:07:00,90.0,77.5,30.06,SE,133,0.0,1.0,67,0.00,,,0.01,812.0,meteohub,2013-06-21 20:07:00,
2013-06-21 15:08:00,90.0,76.1,30.06,East,80,0.0,1.0,64,0.00,,,0.01,809.0,meteohub,2013-06-21 20:08:00,
2013-06-21 15:12:00,90.5,76.6,30.06,NNE,21,0.0,2.0,64,0.00,,,0.01,784.0,meteohub,2013-06-21 20:12:00,
2013-06-21 15:13:00,90.7,76.3,30.06,NE,54,0.0,2.0,63,0.00,,,0.01,773.0,meteohub,2013-06-21 20:13:00,
2013-06-21 15:18:00,90.9,77.5,30.06,ESE,115,0.0,4.0,65,0.00,,,0.01,791.0,meteohub,2013-06-21 20:18:00,
2013-06-21 15:23:00,90.9,75.6,30.06,ESE,115,0.0,4.0,61,0.00,,,0.01,816.0,meteohub,2013-06-21 20:23:00,
2013-06-21 15:29:00,91.2,78.3,30.06,WNW,291,0.0,1.0,66,0.00,,,0.01,805.0,meteohub,2013-06-21 20:29:00,
2013-06-21 15:34:00,90.7,75.9,30.06,WNW,291,0.0,1.0,62,0.00,,,0.01,234.0,meteohub,2013-06-21 20:34:00,
2013-06-21 15:39:00,89.6,76.6,30.06,NW,323,0.0,1.0,66,0.00,,,0.01,320.0,meteohub,2013-06-21 20:39:00,
2013-06-21 15:44:00,89.4,76.6,30.06,NNE,30,0.0,1.0,66,0.00,,,0.01,155.0,meteohub,2013-06-21 20:44:00,
2013-06-21 15:51:00,89.2,76.5,30.05,NE,56,0.0,3.0,66,0.00,,,0.01,132.0,meteohub,2013-06-21 20:51:00,
2013-06-21 15:56:00,89.1,76.3,30.05,NE,46,0.0,7.0,66,0.00,,,0.01,84.0,meteohub,2013-06-21 20:56:00,
2013-06-21 16:01:00,88.7,75.9,30.05,ENE,65,0.0,7.0,66,0.00,,,0.01,91.0,meteohub,2013-06-21 21:01:00,
2013-06-21 16:04:00,88.5,76.1,30.05,SSW,208,0.0,7.0,67,0.00,,,0.01,91.0,meteohub,2013-06-21 21:04:00,
2013-06-21 16:09:00,88.5,75.7,30.04,NNW,346,0.0,7.0,66,0.00,,,0.01,114.0,meteohub,2013-06-21 21:09:00,
2013-06-21 16:14:00,88.5,76.6,30.04,NE,49,0.0,4.0,68,0.00,,,0.01,111.0,meteohub,2013-06-21 21:14:00,
2013-06-21 16:19:00,88.5,76.6,30.04,NE,50,0.0,4.0,68,0.00,,,0.01,118.0,meteohub,2013-06-21 21:19:00,
2013-06-21 16:24:00,88.5,76.6,30.04,ESE,113,0.0,1.0,68,0.00,,,0.01,109.0,meteohub,2013-06-21 21:24:00,
2013-06-21 16:29:00,88.5,76.1,30.05,East,79,0.0,1.0,67,0.00,,,0.01,104.0,meteohub,2013-06-21 21:29:00,
2013-06-21 16:34:00,88.3,76.5,30.04,North,8,0.0,1.0,68,0.00,,,0.01,98.0,meteohub,2013-06-21 21:34:00,
2013-06-21 16:39:00,88.5,75.7,30.04,NNW,327,0.0,1.0,66,0.00,,,0.01,86.0,meteohub,2013-06-21 21:39:00,
2013-06-21 16:45:00,88.2,75.4,30.04,NNE,19,1.0,4.0,66,0.00,,,0.01,72.0,meteohub,2013-06-21 21:45:00,
2013-06-21 16:50:00,86.4,75.0,30.04,North,5,2.0,9.0,69,0.00,,,0.01,53.0,meteohub,2013-06-21 21:50:00,
2013-06-21 16:55:00,85.8,74.8,30.04,East,87,1.0,9.0,70,0.00,,,0.01,49.0,meteohub,2013-06-21 21:55:00,
2013-06-21 17:00:00,85.6,74.7,30.05,WSW,242,0.0,9.0,70,0.00,,,0.01,37.0,meteohub,2013-06-21 22:00:00,
2013-06-21 17:05:00,85.3,74.3,30.06,NW,305,0.0,7.0,70,0.00,,,0.01,30.0,meteohub,2013-06-21 22:05:00,
2013-06-21 17:10:00,84.4,74.3,30.06,SE,137,0.0,7.0,72,0.00,,,0.01,28.0,meteohub,2013-06-21 22:10:00,
2013-06-21 17:15:00,83.1,75.2,30.05,ESE,123,1.0,7.0,77,0.00,,,0.01,32.0,meteohub,2013-06-21 22:15:00,
2013-06-21 17:20:00,81.1,74.7,30.05,East,88,0.0,2.0,81,0.00,,,0.01,33.0,meteohub,2013-06-21 22:20:00,
2013-06-21 17:25:00,79.5,73.9,30.04,SW,233,0.0,2.0,83,0.00,,,0.01,32.0,meteohub,2013-06-21 22:25:00,
2013-06-21 17:30:00,79.0,74.5,30.05,SW,233,0.0,2.0,86,0.00,,,0.01,28.0,meteohub,2013-06-21 22:30:00,
2013-06-21 17:35:00,78.4,74.7,30.05,SW,233,0.0,2.0,88,0.00,,,0.01,26.0,meteohub,2013-06-21 22:35:00,
2013-06-21 17:40:00,77.5,73.8,30.05,WSW,250,0.0,1.0,88,0.00,,,0.01,26.0,meteohub,2013-06-21 22:40:00,
2013-06-21 17:45:00,76.8,73.0,30.05,SSW,200,0.0,3.0,88,0.00,,,0.01,26.0,meteohub,2013-06-21 22:45:00,
2013-06-21 17:50:00,75.9,72.1,30.04,SE,144,0.0,3.0,88,0.00,,,0.01,25.0,meteohub,2013-06-21 22:50:00,
2013-06-21 17:55:00,75.4,71.6,30.03,NE,39,0.0,2.0,88,0.00,,,0.01,25.0,meteohub,2013-06-21 22:55:00,
2013-06-21 18:00:00,75.0,72.0,30.03,SSE,168,1.0,0.0,90,0.00,,,0.01,23.0,meteohub,2013-06-21 23:00:00,
2013-06-21 18:05:00,74.3,70.9,30.03,SW,221,0.0,0.0,89,0.00,,,0.01,23.0,meteohub,2013-06-21 23:05:00,
2013-06-21 18:10:00,74.5,71.4,30.03,WSW,237,0.0,3.0,90,0.00,,,0.01,23.0,meteohub,2013-06-21 23:10:00,
2013-06-21 18:15:00,74.5,71.6,30.03,West,264,0.0,3.0,91,0.00,,,0.01,25.0,meteohub,2013-06-21 23:15:00,
2013-06-21 18:20:00,74.7,71.8,30.04,NNW,337,0.0,1.0,91,0.00,,,0.01,28.0,meteohub,2013-06-21 23:20:00,
2013-06-21 18:25:00,74.8,72.3,30.03,NE,36,0.0,1.0,92,0.00,,,0.01,32.0,meteohub,2013-06-21 23:25:00,
2013-06-21 18:30:00,75.0,72.5,30.03,NNE,23,0.0,1.0,92,0.00,,,0.01,39.0,meteohub,2013-06-21 23:30:00,
2013-06-21 18:35:00,75.2,73.0,30.03,South,181,0.0,0.0,93,0.00,,,0.01,40.0,meteohub,2013-06-21 23:35:00,
2013-06-21 18:40:00,75.4,73.2,30.03,South,176,0.0,1.0,93,0.00,,,0.01,42.0,meteohub,2013-06-21 23:40:00,
2013-06-21 18:45:00,75.7,73.6,30.02,ESE,104,0.0,1.0,93,0.00,,,0.01,46.0,meteohub,2013-06-21 23:45:00,
2013-06-21 18:51:00,75.9,73.8,30.03,ENE,71,0.0,1.0,93,0.00,,,0.01,49.0,meteohub,2013-06-21 23:51:00,
2013-06-21 18:56:00,76.1,73.9,30.04,East,79,0.0,0.0,93,0.00,,,0.01,51.0,meteohub,2013-06-21 23:56:00,
2013-06-21 19:01:00,76.3,74.1,30.04,NNW,336,0.0,0.0,93,0.00,,,0.01,51.0,meteohub,2013-06-22 00:01:00,
2013-06-21 19:06:00,76.5,74.7,30.04,North,9,0.0,0.0,94,0.00,,,0.01,51.0,meteohub,2013-06-22 00:06:00,
2013-06-21 19:10:00,76.6,74.8,30.04,NNE,33,0.0,1.0,94,0.00,,,0.01,56.0,meteohub,2013-06-22 00:10:00,
2013-06-21 19:16:00,76.6,74.8,30.05,NNE,25,0.0,1.0,94,0.00,,,0.01,58.0,meteohub,2013-06-22 00:16:00,
2013-06-21 19:21:00,76.5,74.3,30.05,NNE,32,0.0,1.0,93,0.00,,,0.01,54.0,meteohub,2013-06-22 00:21:00,
2013-06-21 19:26:00,76.5,74.3,30.05,ESE,117,0.0,1.0,93,0.00,,,0.01,56.0,meteohub,2013-06-22 00:26:00,
2013-06-21 19:31:00,76.5,73.9,30.05,ENE,71,0.0,1.0,92,0.00,,,0.01,56.0,meteohub,2013-06-22 00:31:00,
2013-06-21 19:36:00,76.6,74.1,30.05,SE,132,0.0,1.0,92,0.00,,,0.01,51.0,meteohub,2013-06-22 00:36:00,
2013-06-21 19:41:00,76.8,73.9,30.05,SE,131,0.0,1.0,91,0.00,,,0.01,46.0,meteohub,2013-06-22 00:41:00,
2013-06-21 19:46:00,76.8,73.9,30.05,NE,52,0.0,1.0,91,0.00,,,0.00,40.0,meteohub,2013-06-22 00:46:00,
2013-06-21 19:51:00,77.0,74.1,30.05,South,173,0.0,1.0,91,0.00,,,0.01,35.0,meteohub,2013-06-22 00:51:00,
2013-06-21 19:56:00,76.8,74.3,30.06,West,275,0.0,0.0,92,0.00,,,0.01,33.0,meteohub,2013-06-22 00:56:00,
2013-06-21 20:01:00,76.8,74.3,30.05,SSW,194,0.0,0.0,92,0.00,,,0.01,28.0,meteohub,2013-06-22 01:01:00,
2013-06-21 20:06:00,76.8,74.3,30.05,SSW,194,0.0,0.0,92,0.00,,,0.01,25.0,meteohub,2013-06-22 01:06:00,
2013-06-21 20:11:00,76.6,74.1,30.05,South,175,0.0,0.0,92,0.00,,,0.01,26.0,meteohub,2013-06-22 01:11:00,
2013-06-21 20:16:00,76.5,73.6,30.04,ESE,107,0.0,0.0,91,0.00,,,0.01,25.0,meteohub,2013-06-22 01:16:00,
2013-06-21 20:21:00,76.5,73.9,30.04,ESE,108,0.0,0.0,92,0.00,,,0.01,18.0,meteohub,2013-06-22 01:21:00,
2013-06-21 20:26:00,76.1,73.2,30.04,ESE,108,0.0,0.0,91,0.00,,,0.01,11.0,meteohub,2013-06-22 01:26:00,
2013-06-21 20:31:00,75.9,73.4,30.04,ESE,108,0.0,0.0,92,0.00,,,0.01,0.0,meteohub,2013-06-22 01:31:00,
2013-06-21 20:36:00,75.7,73.2,30.04,ESE,108,0.0,0.0,92,0.00,,,0.01,0.0,meteohub,2013-06-22 01:36:00,
2013-06-21 20:41:00,75.6,73.0,30.04,ESE,107,0.0,0.0,92,0.00,,,0.01,0.0,meteohub,2013-06-22 01:41:00,
2013-06-21 20:46:00,75.4,72.9,30.04,ESE,108,0.0,0.0,92,0.00,,,0.01,0.0,meteohub,2013-06-22 01:46:00,
2013-06-21 20:51:00,75.6,73.4,30.04,ESE,108,0.0,0.0,93,0.00,,,0.01,0.0,meteohub,2013-06-22 01:51:00,
2013-06-21 20:56:00,75.4,73.2,30.04,ESE,108,0.0,0.0,93,0.00,,,0.01,0.0,meteohub,2013-06-22 01:56:00,
2013-06-21 21:01:00,75.0,72.9,30.04,ESE,107,0.0,0.0,93,0.00,,,0.01,0.0,meteohub,2013-06-22 02:01:00,
2013-06-21 21:06:00,75.0,72.9,30.04,ESE,107,0.0,0.0,93,0.00,,,0.01,0.0,meteohub,2013-06-22 02:06:00,
2013-06-21 21:11:00,74.8,72.7,30.03,ESE,108,0.0,0.0,93,0.00,,,0.01,0.0,meteohub,2013-06-22 02:11:00,
2013-06-21 21:16:00,74.7,72.5,30.03,ESE,108,0.0,0.0,93,0.00,,,0.01,0.0,meteohub,2013-06-22 02:16:00,
2013-06-21 21:21:00,74.7,72.5,30.04,ESE,107,0.0,0.0,93,0.00,,,0.01,0.0,meteohub,2013-06-22 02:21:00,
2013-06-21 21:26:00,74.5,72.3,30.04,ESE,108,0.0,0.0,93,0.00,,,0.01,0.0,meteohub,2013-06-22 02:26:00,
2013-06-21 21:31:00,74.7,72.9,30.04,ESE,108,0.0,0.0,94,0.00,,,0.01,0.0,meteohub,2013-06-22 02:31:00,
2013-06-21 21:36:00,74.5,72.7,30.04,ESE,108,0.0,0.0,94,0.00,,,0.01,0.0,meteohub,2013-06-22 02:36:00,
2013-06-21 21:41:00,74.5,72.7,30.04,ESE,107,0.0,0.0,94,0.00,,,0.01,0.0,meteohub,2013-06-22 02:41:00,
2013-06-21 21:46:00,74.5,72.7,30.04,ESE,108,0.0,0.0,94,0.00,,,0.01,0.0,meteohub,2013-06-22 02:46:00,
2013-06-21 21:51:00,74.7,72.9,30.04,ESE,108,0.0,0.0,94,0.00,,,0.01,0.0,meteohub,2013-06-22 02:51:00,
2013-06-21 21:56:00,74.7,73.2,30.04,ESE,107,0.0,0.0,95,0.00,,,0.01,0.0,meteohub,2013-06-22 02:56:00,
2013-06-21 22:01:00,74.5,73.0,30.04,ESE,108,0.0,0.0,95,0.00,,,0.01,0.0,meteohub,2013-06-22 03:01:00,
2013-06-21 22:06:00,74.5,72.7,30.04,ESE,108,0.0,0.0,94,0.00,,,0.01,0.0,meteohub,2013-06-22 03:06:00,
2013-06-21 22:11:00,74.5,72.7,30.05,ESE,107,0.0,0.0,94,0.00,,,0.01,0.0,meteohub,2013-06-22 03:11:00,
2013-06-21 22:16:00,74.7,72.5,30.04,ESE,108,0.0,0.0,93,0.00,,,0.01,0.0,meteohub,2013-06-22 03:16:00,
2013-06-21 22:22:00,74.7,72.5,30.04,ESE,108,0.0,0.0,93,0.00,,,0.01,0.0,meteohub,2013-06-22 03:22:00,
2013-06-21 22:27:00,74.7,72.5,30.04,ESE,107,0.0,0.0,93,0.00,,,0.01,0.0,meteohub,2013-06-22 03:27:00,
2013-06-21 22:32:00,74.5,72.3,30.04,ESE,107,0.0,0.0,93,0.00,,,0.01,0.0,meteohub,2013-06-22 03:32:00,
2013-06-21 22:37:00,74.1,72.0,30.05,ESE,108,0.0,0.0,93,0.00,,,0.01,0.0,meteohub,2013-06-22 03:37:00,
2013-06-21 22:42:00,74.1,72.0,30.05,ESE,108,0.0,0.0,93,0.00,,,0.01,0.0,meteohub,2013-06-22 03:42:00,
2013-06-21 22:47:00,73.9,71.8,30.04,ESE,107,0.0,0.0,93,0.00,,,0.01,0.0,meteohub,2013-06-22 03:47:00,
2013-06-21 22:52:00,73.9,71.8,30.04,ESE,107,0.0,0.0,93,0.00,,,0.01,0.0,meteohub,2013-06-22 03:52:00,
2013-06-21 22:57:00,74.1,72.0,30.04,ESE,107,0.0,0.0,93,0.00,,,0.01,0.0,meteohub,2013-06-22 03:57:00,
2013-06-21 23:01:00,73.9,71.8,30.04,ESE,107,0.0,0.0,93,0.00,,,0.01,0.0,meteohub,2013-06-22 04:01:00,
2013-06-21 23:02:00,74.1,72.0,30.05,ESE,108,0.0,0.0,93,0.00,,,0.01,0.0,meteohub,2013-06-22 04:02:00,
2013-06-21 23:07:00,73.9,71.8,30.05,ESE,108,0.0,0.0,93,0.00,,,0.01,0.0,meteohub,2013-06-22 04:07:00,
2013-06-21 23:12:00,73.9,72.1,30.05,ESE,108,0.0,0.0,94,0.00,,,0.01,0.0,meteohub,2013-06-22 04:12:00,
2013-06-21 23:17:00,73.9,72.1,30.05,ESE,107,0.0,0.0,94,0.00,,,0.01,0.0,meteohub,2013-06-22 04:17:00,
2013-06-21 23:22:00,73.8,72.0,30.04,ESE,108,0.0,0.0,94,0.00,,,0.01,0.0,meteohub,2013-06-22 04:22:00,
2013-06-21 23:27:00,73.6,71.8,30.04,ESE,107,0.0,0.0,94,0.00,,,0.01,0.0,meteohub,2013-06-22 04:27:00,
2013-06-21 23:32:00,73.6,71.8,30.04,ESE,108,0.0,0.0,94,0.00,,,0.01,0.0,meteohub,2013-06-22 04:32:00,
2013-06-21 23:37:00,73.6,71.8,30.05,ESE,107,0.0,0.0,94,0.00,,,0.01,0.0,meteohub,2013-06-22 04:37:00,
2013-06-21 23:42:00,73.6,71.8,30.05,ESE,108,0.0,0.0,94,0.00,,,0.01,0.0,meteohub,2013-06-22 04:42:00,
2013-06-21 23:47:00,73.6,72.1,30.04,ESE,107,0.0,0.0,95,0.00,,,0.01,0.0,meteohub,2013-06-22 04:47:00,
2013-06-21 23:52:00,73.6,71.8,30.04,ESE,108,0.0,0.0,94,0.00,,,0.01,0.0,meteohub,2013-06-22 04:52:00,
2013-06-21 23:57:00,73.6,72.1,30.04,ESE,107,0.0,0.0,95,0.00,,,0.01,0.0,meteohub,2013-06-22 04:57:00,